Time;durP1;ratioP1;P1;durP2;ratioP2;P2;SDS_P1;SDS_P2;PMS_P1;PMS_P2;Temp;Humidity;BMP_temperature;BMP_pressure;BME280_temperature;BME280_humidity;BME280_pressure;Samples;Min_cycle;Max_cycle;Signal;HPM_P1;HPM_P2
2022/03/04 00:01:17;;;;;;;18.80;13.77;;;6.80;59.00;;;;;;5040412;28;20449;-69
2022/03/04 00:03:43;;;;;;;20.67;13.80;;;6.70;59.20;;;;;;5038121;28;20495;-69
2022/03/04 00:06:08;;;;;;;25.03;15.53;;;6.60;59.90;;;;;;5035479;28;20478;-71
2022/03/04 00:08:34;;;;;;;20.93;13.47;;;6.60;59.70;;;;;;5040335;28;20184;-72
2022/03/04 00:11:00;;;;;;;20.17;13.87;;;6.70;60.40;;;;;;5039253;28;20186;-72
2022/03/04 00:13:25;;;;;;;20.73;14.60;;;6.70;59.90;;;;;;5039678;28;20257;-72
2022/03/04 00:15:51;;;;;;;20.03;14.17;;;6.70;59.60;;;;;;5039357;28;20823;-71
2022/03/04 00:18:17;;;;;;;19.87;14.77;;;6.60;59.50;;;;;;5039254;28;20223;-71
2022/03/04 00:20:43;;;;;;;21.10;15.10;;;6.40;61.10;;;;;;5023805;28;20537;-72
2022/03/04 00:23:08;;;;;;;21.43;14.00;;;6.40;60.70;;;;;;5036588;28;20253;-72
2022/03/04 00:25:37;;;;;;;20.50;15.30;;;6.30;61.20;;;;;;5040159;28;20508;-72
2022/03/04 00:28:03;;;;;;;21.83;15.10;;;6.20;61.50;;;;;;5039810;28;20186;-71
2022/03/04 00:30:29;;;;;;;17.63;12.87;;;6.30;61.40;;;;;;5040800;28;20453;-72
2022/03/04 00:32:54;;;;;;;23.47;16.10;;;6.50;60.60;;;;;;5038723;28;20438;-72
2022/03/04 00:35:20;;;;;;;21.33;14.60;;;6.40;60.40;;;;;;5039923;28;20278;-71
2022/03/04 00:37:46;;;;;;;20.27;14.63;;;6.30;61.30;;;;;;5039374;28;20184;-72
2022/03/04 00:40:14;;;;;;;18.70;13.57;;;5.90;61.80;;;;;;5040212;28;20588;-72
2022/03/04 00:42:40;;;;;;;22.30;13.90;;;5.90;62.70;;;;;;5038478;28;20184;-73
2022/03/04 00:45:06;;;;;;;21.23;13.23;;;5.80;62.50;;;;;;5039097;28;20557;-73
2022/03/04 00:47:31;;;;;;;19.40;14.00;;;5.90;62.70;;;;;;5040731;28;20457;-72
2022/03/04 00:49:58;;;;;;;18.87;13.70;;;5.90;63.30;;;;;;5039108;28;20757;-71
2022/03/04 00:52:24;;;;;;;20.00;14.23;;;5.60;63.80;;;;;;5041092;28;20180;-72
2022/03/04 00:54:49;;;;;;;19.33;13.10;;;5.80;63.60;;;;;;5040104;28;20452;-73
2022/03/04 00:57:15;;;;;;;19.67;13.00;;;5.90;63.50;;;;;;5040553;28;20213;-72
2022/03/04 00:59:41;;;;;;;19.50;13.17;;;5.90;63.20;;;;;;5037991;28;20211;-72
2022/03/04 01:02:07;;;;;;;20.23;14.17;;;6.10;63.20;;;;;;5039587;28;20454;-71
2022/03/04 01:04:32;;;;;;;20.50;14.07;;;6.00;62.90;;;;;;5039516;28;20192;-71
2022/03/04 01:06:58;;;;;;;22.63;14.50;;;6.10;63.20;;;;;;5037718;28;20307;-71
2022/03/04 01:09:24;;;;;;;19.73;13.10;;;6.10;62.80;;;;;;5040852;28;20208;-71
2022/03/04 01:11:49;;;;;;;18.03;13.90;;;6.20;62.30;;;;;;5039757;28;20194;-70
2022/03/04 01:14:15;;;;;;;15.97;12.27;;;6.20;62.20;;;;;;5038992;28;20187;-71
2022/03/04 01:16:41;;;;;;;18.90;13.20;;;6.10;62.20;;;;;;5036430;28;20196;-75
2022/03/04 01:19:06;;;;;;;20.30;14.13;;;6.20;62.00;;;;;;5042391;28;20596;-73
2022/03/04 01:21:34;;;;;;;16.73;12.67;;;6.30;61.60;;;;;;5037640;28;20438;-74
2022/03/04 01:24:00;;;;;;;15.90;12.60;;;6.20;61.40;;;;;;5042917;28;20190;-74
2022/03/04 01:26:25;;;;;;;16.57;12.67;;;6.20;61.10;;;;;;5042512;28;20934;-73
2022/03/04 01:28:51;;;;;;;19.17;13.60;;;6.20;61.10;;;;;;5042598;28;20832;-73
2022/03/04 01:31:17;;;;;;;20.37;15.00;;;6.20;61.40;;;;;;5037180;28;20433;-73
2022/03/04 01:33:42;;;;;;;25.87;15.57;;;6.20;61.50;;;;;;5045383;28;20183;-73
2022/03/04 01:36:08;;;;;;;18.53;13.33;;;6.20;61.10;;;;;;5042077;28;20202;-73
2022/03/04 01:38:34;;;;;;;22.83;13.43;;;6.10;61.00;;;;;;5043552;28;20270;-71
2022/03/04 01:41:00;;;;;;;18.57;12.97;;;6.10;61.40;;;;;;5045196;28;20192;-72
2022/03/04 01:43:25;;;;;;;20.13;13.70;;;5.70;62.20;;;;;;5043020;28;20437;-69
2022/03/04 01:45:51;;;;;;;17.20;12.97;;;5.90;62.30;;;;;;5042866;28;20189;-71
2022/03/04 01:48:20;;;;;;;20.63;14.33;;;5.90;62.60;;;;;;5040561;28;20184;-72
2022/03/04 01:50:49;;;;;;;21.77;14.03;;;5.90;62.90;;;;;;5046248;28;20449;-71
2022/03/04 01:53:16;;;;;;;19.20;14.70;;;5.90;62.90;;;;;;5041150;28;20947;-71
2022/03/04 01:55:41;;;;;;;21.80;15.03;;;6.00;63.10;;;;;;5043735;28;20461;-71
2022/03/04 01:58:07;;;;;;;18.57;13.37;;;6.00;62.60;;;;;;5044499;28;20927;-71
2022/03/04 02:00:33;;;;;;;21.37;13.80;;;6.00;63.10;;;;;;5043354;28;20208;-71
2022/03/04 02:03:00;;;;;;;22.43;14.60;;;6.10;62.90;;;;;;5043801;28;20595;-71
2022/03/04 02:05:26;;;;;;;18.53;13.07;;;5.90;63.60;;;;;;5041974;28;20270;-70
2022/03/04 02:07:52;;;;;;;17.87;13.27;;;5.90;63.20;;;;;;5042875;28;20462;-72
2022/03/04 02:10:18;;;;;;;20.63;13.90;;;5.90;63.40;;;;;;5040654;28;21076;-71
2022/03/04 02:12:44;;;;;;;21.57;15.00;;;5.90;63.00;;;;;;5041857;28;20190;-74
2022/03/04 02:15:10;;;;;;;20.80;13.40;;;5.80;63.40;;;;;;5042228;28;20184;-73
2022/03/04 02:17:36;;;;;;;23.03;15.23;;;5.70;63.80;;;;;;5041889;28;20208;-74
2022/03/04 02:20:04;;;;;;;17.17;12.50;;;5.80;63.80;;;;;;5039039;28;20466;-73
2022/03/04 02:22:33;;;;;;;19.63;13.17;;;5.80;63.80;;;;;;5041920;28;20926;-75
2022/03/04 02:24:59;;;;;;;19.80;12.80;;;5.70;64.20;;;;;;5042585;28;20441;-73
2022/03/04 02:27:25;;;;;;;19.73;13.13;;;5.80;63.90;;;;;;5041726;28;20461;-73
2022/03/04 02:29:50;;;;;;;22.03;13.00;;;5.70;64.30;;;;;;5041281;28;20443;-73
2022/03/04 02:32:16;;;;;;;19.77;13.20;;;5.70;64.40;;;;;;5040564;28;20271;-73
2022/03/04 02:34:41;;;;;;;21.93;13.23;;;5.70;64.40;;;;;;5043899;28;20675;-73
2022/03/04 02:37:08;;;;;;;18.27;12.03;;;5.60;65.10;;;;;;5040029;28;20257;-72
2022/03/04 02:39:33;;;;;;;20.33;13.63;;;5.50;65.00;;;;;;5042592;28;20211;-73
2022/03/04 02:41:59;;;;;;;18.97;12.87;;;5.50;65.10;;;;;;5027026;28;20450;-72
2022/03/04 02:44:24;;;;;;;22.20;13.17;;;5.40;65.70;;;;;;5041079;28;20222;-72
2022/03/04 02:46:50;;;;;;;18.67;12.90;;;5.50;66.00;;;;;;5041778;28;20222;-71
2022/03/04 02:49:16;;;;;;;18.90;13.27;;;5.50;65.80;;;;;;5043095;28;20676;-73
2022/03/04 02:51:41;;;;;;;20.10;14.20;;;5.40;65.70;;;;;;5041684;28;20179;-72
2022/03/04 02:54:07;;;;;;;22.67;14.00;;;5.50;66.10;;;;;;5041496;28;20815;-72
2022/03/04 02:56:34;;;;;;;21.03;14.70;;;5.40;66.50;;;;;;5040994;28;20202;-72
2022/03/04 02:58:59;;;;;;;19.60;13.47;;;5.30;66.90;;;;;;5042905;28;20462;-72
2022/03/04 03:01:25;;;;;;;20.93;13.73;;;5.40;66.90;;;;;;5038268;28;20497;-72
2022/03/04 03:03:51;;;;;;;23.00;15.20;;;5.40;67.30;;;;;;5041606;28;20286;-72
2022/03/04 03:06:17;;;;;;;20.70;14.10;;;5.40;67.10;;;;;;5040547;28;20779;-72
2022/03/04 03:08:42;;;;;;;23.80;14.57;;;5.30;68.20;;;;;;5042256;28;20442;-70
2022/03/04 03:11:08;;;;;;;17.67;14.07;;;5.50;67.90;;;;;;5039882;28;20184;-70
2022/03/04 03:13:34;;;;;;;25.33;14.27;;;5.30;68.00;;;;;;5041443;28;20283;-70
2022/03/04 03:16:00;;;;;;;22.17;16.00;;;5.50;67.90;;;;;;5041195;28;20466;-70
2022/03/04 03:18:25;;;;;;;21.30;13.33;;;5.40;68.10;;;;;;5039626;28;20590;-72
2022/03/04 03:20:51;;;;;;;23.60;14.50;;;5.20;68.40;;;;;;5042642;28;20201;-71
2022/03/04 03:23:17;;;;;;;21.30;14.77;;;5.20;69.20;;;;;;5039048;28;20234;-72
2022/03/04 03:25:42;;;;;;;17.90;12.87;;;5.30;69.20;;;;;;5037982;28;20177;-72
2022/03/04 03:28:08;;;;;;;25.37;14.80;;;5.30;68.90;;;;;;5041191;28;20584;-71
2022/03/04 03:30:34;;;;;;;21.90;14.10;;;5.40;68.50;;;;;;5024812;28;20212;-72
2022/03/04 03:32:59;;;;;;;26.77;15.07;;;5.30;68.80;;;;;;5041436;28;20184;-71
2022/03/04 03:35:25;;;;;;;21.77;14.97;;;5.20;69.20;;;;;;5042158;28;20186;-71
2022/03/04 03:37:51;;;;;;;21.23;14.43;;;5.30;68.90;;;;;;5038782;28;20192;-71
2022/03/04 03:40:17;;;;;;;23.27;14.17;;;5.30;68.90;;;;;;5040498;28;20446;-72
2022/03/04 03:42:42;;;;;;;19.90;14.10;;;5.40;69.00;;;;;;5040885;28;20235;-74
2022/03/04 03:45:10;;;;;;;21.60;14.00;;;5.30;69.30;;;;;;5040257;28;20340;-73
2022/03/04 03:47:38;;;;;;;20.67;13.93;;;5.30;70.10;;;;;;5036844;28;20240;-72
2022/03/04 03:50:09;;;;;;;18.90;14.07;;;5.40;69.30;;;;;;5040278;28;20538;-72
2022/03/04 03:52:35;;;;;;;25.73;15.07;;;5.20;69.30;;;;;;5038766;28;20430;-73
2022/03/04 03:55:00;;;;;;;22.50;13.87;;;4.90;70.30;;;;;;5040451;28;20431;-73
2022/03/04 03:57:26;;;;;;;23.10;15.10;;;4.80;71.10;;;;;;5037943;28;20435;-73
2022/03/04 03:59:52;;;;;;;24.30;14.30;;;4.80;71.30;;;;;;5042741;28;20800;-73
2022/03/04 04:02:17;;;;;;;25.13;15.90;;;4.90;71.30;;;;;;5040936;28;20647;-73
2022/03/04 04:04:44;;;;;;;25.47;14.13;;;5.00;71.10;;;;;;5040210;28;20188;-74
2022/03/04 04:07:11;;;;;;;21.33;13.43;;;4.90;71.20;;;;;;5040450;28;20860;-74
2022/03/04 04:09:37;;;;;;;20.27;13.60;;;4.90;71.30;;;;;;5038043;28;20458;-74
2022/03/04 04:12:03;;;;;;;24.53;14.47;;;4.80;71.20;;;;;;5038017;28;20434;-72
2022/03/04 04:14:29;;;;;;;24.20;13.77;;;4.90;71.70;;;;;;5036317;28;20278;-71
2022/03/04 04:16:56;;;;;;;21.23;13.87;;;4.80;72.00;;;;;;5010101;28;20438;-72
2022/03/04 04:19:23;;;;;;;23.30;14.27;;;4.60;72.20;;;;;;5034377;28;20529;-72
2022/03/04 04:21:49;;;;;;;28.27;15.97;;;4.70;72.30;;;;;;5037613;28;20437;-73
2022/03/04 04:24:16;;;;;;;26.30;15.37;;;4.80;72.20;;;;;;5037910;28;20429;-72
2022/03/04 04:26:43;;;;;;;24.53;15.37;;;4.60;72.00;;;;;;5039295;28;20489;-72
2022/03/04 04:29:08;;;;;;;22.67;14.80;;;4.70;72.50;;;;;;5039340;28;20475;-71
2022/03/04 04:31:35;;;;;;;21.00;14.53;;;4.80;72.30;;;;;;5040252;28;20425;-71
2022/03/04 04:34:02;;;;;;;23.00;14.87;;;4.60;72.40;;;;;;5038404;28;20601;-72
2022/03/04 04:36:28;;;;;;;19.13;13.73;;;4.70;72.90;;;;;;5037058;28;20562;-72
2022/03/04 04:38:54;;;;;;;23.93;16.00;;;4.60;72.80;;;;;;5038873;28;21089;-72
2022/03/04 04:41:20;;;;;;;25.93;15.60;;;4.50;73.30;;;;;;5024470;28;20476;-73
2022/03/04 04:43:46;;;;;;;23.90;14.63;;;4.50;73.20;;;;;;5038876;28;20430;-72
2022/03/04 04:46:12;;;;;;;24.47;15.30;;;4.20;73.20;;;;;;5034472;28;20203;-73
2022/03/04 04:48:38;;;;;;;24.70;14.87;;;4.20;74.60;;;;;;5038296;28;20812;-73
2022/03/04 04:51:05;;;;;;;22.83;14.53;;;4.10;74.50;;;;;;5038852;28;20429;-72
2022/03/04 04:53:31;;;;;;;25.90;14.90;;;4.20;75.00;;;;;;5040963;28;20434;-72
2022/03/04 04:55:58;;;;;;;22.50;15.70;;;4.40;74.40;;;;;;5040840;28;20418;-72
2022/03/04 04:58:24;;;;;;;21.37;14.87;;;4.30;74.10;;;;;;5039578;28;20454;-72
2022/03/04 05:00:56;;;;;;;23.63;16.20;;;4.20;74.30;;;;;;5043205;28;20438;-71
2022/03/04 05:03:25;;;;;;;24.27;14.77;;;4.20;74.70;;;;;;5044483;28;20438;-72
2022/03/04 05:05:52;;;;;;;25.40;15.07;;;4.20;74.90;;;;;;5044848;28;20419;-73
2022/03/04 05:08:18;;;;;;;23.20;14.37;;;4.10;74.70;;;;;;5044823;28;20504;-74
2022/03/04 05:10:44;;;;;;;27.03;16.10;;;3.80;75.20;;;;;;5043451;28;20465;-74
2022/03/04 05:13:11;;;;;;;21.87;14.97;;;3.90;76.00;;;;;;5045719;28;21967;-74
2022/03/04 05:15:37;;;;;;;25.10;15.60;;;4.10;75.50;;;;;;5047043;28;20170;-73
2022/03/04 05:18:02;;;;;;;25.33;15.27;;;4.10;75.60;;;;;;5044813;28;21010;-73
2022/03/04 05:20:28;;;;;;;25.60;15.40;;;4.20;75.50;;;;;;5046442;28;20469;-74
2022/03/04 05:22:54;;;;;;;21.77;15.27;;;4.10;75.30;;;;;;5044192;28;20233;-74
2022/03/04 05:25:20;;;;;;;24.67;15.60;;;4.00;75.70;;;;;;5044844;28;20450;-74
2022/03/04 05:27:45;;;;;;;21.60;14.90;;;3.90;76.40;;;;;;5043628;28;20218;-73
2022/03/04 05:30:11;;;;;;;20.83;14.70;;;4.00;76.60;;;;;;5045475;28;21135;-73
2022/03/04 05:32:39;;;;;;;24.47;14.37;;;4.00;76.20;;;;;;5045462;28;20183;-74
2022/03/04 05:35:06;;;;;;;26.40;15.87;;;4.10;76.20;;;;;;5043238;28;20439;-73
2022/03/04 05:37:31;;;;;;;23.10;14.77;;;3.90;75.50;;;;;;5040501;28;20481;-73
2022/03/04 05:39:57;;;;;;;23.53;14.93;;;3.80;76.90;;;;;;5044264;28;21025;-71
2022/03/04 05:42:23;;;;;;;25.60;14.07;;;3.70;77.60;;;;;;5042601;28;20198;-72
2022/03/04 05:44:48;;;;;;;25.73;15.60;;;3.90;77.50;;;;;;5043862;28;20188;-72
2022/03/04 05:47:14;;;;;;;26.33;15.40;;;3.80;77.40;;;;;;5043602;28;20269;-73
2022/03/04 05:49:39;;;;;;;25.73;15.43;;;3.80;77.60;;;;;;5044190;28;20204;-72
2022/03/04 05:52:06;;;;;;;27.27;15.63;;;3.80;77.90;;;;;;5044207;28;20678;-73
2022/03/04 05:54:32;;;;;;;23.90;15.33;;;3.90;77.90;;;;;;5040566;28;20254;-73
2022/03/04 05:56:58;;;;;;;24.90;15.60;;;4.10;78.50;;;;;;5041224;28;20430;-73
2022/03/04 05:59:24;;;;;;;23.63;15.10;;;3.90;77.60;;;;;;5043171;28;20451;-73
2022/03/04 06:01:50;;;;;;;26.63;15.63;;;4.00;78.00;;;;;;5042561;28;20199;-72
2022/03/04 06:04:16;;;;;;;26.57;15.67;;;3.90;77.70;;;;;;5041874;28;20439;-72
2022/03/04 06:06:42;;;;;;;26.63;16.53;;;3.80;77.90;;;;;;5039240;28;20874;-73
2022/03/04 06:09:08;;;;;;;23.57;14.93;;;3.90;78.20;;;;;;5042861;28;20476;-73
2022/03/04 06:11:33;;;;;;;24.10;15.97;;;3.90;78.20;;;;;;5042965;28;20664;-73
2022/03/04 06:13:59;;;;;;;25.33;16.43;;;3.90;78.00;;;;;;5041724;28;20176;-72
2022/03/04 06:16:25;;;;;;;25.73;16.20;;;3.80;78.70;;;;;;5037144;28;20203;-73
2022/03/04 06:18:51;;;;;;;27.13;16.30;;;3.70;81.10;;;;;;5041817;28;20239;-74
2022/03/04 06:21:17;;;;;;;26.63;16.90;;;3.80;79.60;;;;;;5041466;28;20180;-74
2022/03/04 06:23:42;;;;;;;26.03;16.20;;;3.70;79.50;;;;;;5042116;28;20475;-74
2022/03/04 06:26:08;;;;;;;30.57;16.60;;;3.60;79.70;;;;;;5042705;28;20286;-73
2022/03/04 06:28:34;;;;;;;24.00;15.10;;;3.70;80.10;;;;;;5023779;28;20228;-74
2022/03/04 06:30:59;;;;;;;23.50;15.40;;;3.60;80.30;;;;;;5040893;28;20184;-75
2022/03/04 06:33:31;;;;;;;24.20;15.23;;;3.60;80.50;;;;;;5026871;28;20285;-73
2022/03/04 06:36:00;;;;;;;26.50;16.20;;;3.60;81.20;;;;;;5042562;28;20183;-73
2022/03/04 06:38:26;;;;;;;23.07;16.73;;;3.70;80.90;;;;;;5042665;28;20422;-73
2022/03/04 06:40:52;;;;;;;28.03;17.87;;;3.80;81.10;;;;;;5042539;28;20438;-74
2022/03/04 06:43:18;;;;;;;28.87;17.80;;;3.80;81.10;;;;;;5044740;28;20192;-74
2022/03/04 06:45:46;;;;;;;26.63;15.47;;;3.80;81.50;;;;;;5044974;28;20454;-74
2022/03/04 06:48:13;;;;;;;21.57;15.83;;;3.70;80.80;;;;;;5041181;28;20433;-74
2022/03/04 06:50:41;;;;;;;25.80;15.90;;;3.80;81.20;;;;;;5042043;28;20516;-74
2022/03/04 06:53:07;;;;;;;25.93;15.27;;;3.80;80.90;;;;;;5040356;28;20441;-75
2022/03/04 06:55:33;;;;;;;26.13;15.30;;;3.80;81.20;;;;;;5040674;28;20434;-74
2022/03/04 06:57:59;;;;;;;29.07;17.07;;;3.90;81.00;;;;;;5045023;28;20188;-74
2022/03/04 07:00:25;;;;;;;25.23;16.07;;;3.90;81.10;;;;;;5043680;28;20465;-74
2022/03/04 07:02:52;;;;;;;28.80;17.23;;;3.80;80.90;;;;;;5027752;28;20234;-74
2022/03/04 07:05:21;;;;;;;24.23;16.23;;;3.80;81.30;;;;;;5041800;28;20469;-74
2022/03/04 07:07:50;;;;;;;25.80;16.33;;;3.90;81.10;;;;;;5045317;28;20458;-74
2022/03/04 07:10:16;;;;;;;25.40;16.00;;;3.80;80.90;;;;;;5041972;28;20482;-73
2022/03/04 07:12:42;;;;;;;29.53;17.30;;;3.70;81.10;;;;;;5045032;28;21158;-73
2022/03/04 07:15:09;;;;;;;27.13;17.07;;;3.80;81.50;;;;;;5041846;28;20438;-72
2022/03/04 07:17:35;;;;;;;28.27;15.87;;;3.90;81.10;;;;;;5039972;28;20177;-72
2022/03/04 07:20:01;;;;;;;26.57;15.67;;;3.90;81.10;;;;;;5044850;28;20819;-72
2022/03/04 07:22:27;;;;;;;25.10;16.00;;;3.80;81.60;;;;;;5043219;28;20529;-72
2022/03/04 07:24:52;;;;;;;26.00;15.47;;;3.80;81.50;;;;;;5026225;28;20450;-75
2022/03/04 07:27:18;;;;;;;29.50;16.63;;;3.90;82.00;;;;;;5041114;28;20208;-75
2022/03/04 07:29:44;;;;;;;26.40;16.10;;;4.00;81.70;;;;;;5026569;28;20230;-74
2022/03/04 07:32:09;;;;;;;24.13;15.40;;;4.00;81.50;;;;;;5042874;28;20183;-75
2022/03/04 07:34:35;;;;;;;25.83;16.33;;;3.90;82.10;;;;;;5040348;28;20185;-75
2022/03/04 07:37:01;;;;;;;26.60;18.27;;;3.90;82.30;;;;;;5039899;28;20281;-74
2022/03/04 07:39:26;;;;;;;25.87;16.80;;;4.00;82.80;;;;;;5042397;28;20211;-74
2022/03/04 07:41:52;;;;;;;27.93;18.10;;;4.00;83.10;;;;;;5044901;28;20184;-74
2022/03/04 07:44:18;;;;;;;31.67;18.07;;;4.10;82.80;;;;;;5027601;28;20715;-74
2022/03/04 07:46:44;;;;;;;26.20;17.63;;;4.30;81.90;;;;;;5041993;28;20291;-75
2022/03/04 07:49:10;;;;;;;27.00;15.93;;;4.30;81.80;;;;;;5039561;28;20462;-74
2022/03/04 07:51:36;;;;;;;27.73;16.90;;;4.40;82.00;;;;;;5045094;28;20192;-76
2022/03/04 07:54:02;;;;;;;28.47;17.67;;;4.40;82.20;;;;;;5039991;28;20187;-76
2022/03/04 07:56:27;;;;;;;32.70;18.30;;;4.40;82.20;;;;;;5040780;28;20437;-75
2022/03/04 07:58:53;;;;;;;23.53;16.40;;;4.50;82.00;;;;;;5039879;28;20445;-74
2022/03/04 08:01:19;;;;;;;28.70;17.07;;;4.70;81.20;;;;;;5040468;28;20203;-74
2022/03/04 08:03:45;;;;;;;26.60;18.07;;;4.80;80.60;;;;;;5041741;28;20215;-75
2022/03/04 08:06:10;;;;;;;30.10;18.27;;;4.70;80.50;;;;;;5040527;28;20981;-75
2022/03/04 08:08:37;;;;;;;30.57;17.30;;;4.60;80.00;;;;;;5039592;28;20449;-77
2022/03/04 08:11:03;;;;;;;26.20;16.27;;;4.70;80.30;;;;;;5040563;28;20445;-75
2022/03/04 08:13:28;;;;;;;28.23;17.77;;;4.80;80.10;;;;;;5042279;28;20681;-75
2022/03/04 08:15:54;;;;;;;31.00;18.13;;;4.90;80.00;;;;;;5038376;28;20195;-81
2022/03/04 08:18:20;;;;;;;25.50;17.60;;;4.80;80.50;;;;;;5041215;28;20191;-81
2022/03/04 08:20:45;;;;;;;29.47;19.07;;;5.00;80.40;;;;;;5044149;28;20215;-83
2022/03/04 08:23:11;;;;;;;27.40;18.90;;;5.10;81.00;;;;;;5041481;28;20503;-76
2022/03/04 08:25:41;;;;;;;43.03;28.50;;;5.20;79.80;;;;;;5041313;28;20548;-74
2022/03/04 08:28:07;;;;;;;42.87;24.40;;;5.10;81.10;;;;;;5017996;28;20485;-76
2022/03/04 08:30:33;;;;;;;28.63;19.00;;;5.30;81.50;;;;;;5040155;28;20453;-75
2022/03/04 08:32:59;;;;;;;30.33;18.27;;;5.20;80.70;;;;;;5041408;28;20653;-75
2022/03/04 08:35:25;;;;;;;26.60;19.30;;;5.20;80.50;;;;;;5041895;28;20490;-75
2022/03/04 08:37:52;;;;;;;28.90;17.10;;;5.20;80.20;;;;;;5040154;28;20491;-76
2022/03/04 08:40:20;;;;;;;25.40;17.70;;;5.30;80.40;;;;;;5038220;28;20878;-74
2022/03/04 08:42:46;;;;;;;27.73;18.70;;;5.20;79.70;;;;;;5024938;28;20474;-76
2022/03/04 08:45:13;;;;;;;24.30;17.50;;;5.30;79.50;;;;;;5042226;28;20480;-77
2022/03/04 08:47:41;;;;;;;25.63;18.53;;;5.30;79.60;;;;;;5042609;28;20736;-73
2022/03/04 08:50:11;;;;;;;32.27;18.37;;;5.30;78.70;;;;;;5040598;28;21448;-73
2022/03/04 08:52:37;;;;;;;28.13;18.03;;;5.30;77.70;;;;;;5038384;28;20446;-76
2022/03/04 08:55:07;;;;;;;27.97;17.53;;;5.30;78.60;;;;;;5042965;28;20430;-73
2022/03/04 08:57:33;;;;;;;27.97;16.77;;;5.40;77.90;;;;;;5034632;28;20423;-75
2022/03/04 08:59:59;;;;;;;31.80;18.77;;;5.50;77.90;;;;;;5018810;28;20515;-78
2022/03/04 09:02:25;;;;;;;31.53;19.87;;;5.50;78.20;;;;;;5038393;28;20207;-76
2022/03/04 09:04:53;;;;;;;26.23;17.87;;;5.60;77.90;;;;;;5037952;28;20949;-77
2022/03/04 09:07:19;;;;;;;30.43;17.00;;;5.70;77.60;;;;;;5038016;28;20207;-77
2022/03/04 09:09:44;;;;;;;28.60;18.97;;;5.70;77.60;;;;;;5040764;28;20457;-77
2022/03/04 09:12:10;;;;;;;27.23;17.33;;;5.80;76.80;;;;;;5028973;28;20225;-81
2022/03/04 09:14:36;;;;;;;25.70;18.27;;;5.90;76.40;;;;;;5042027;28;20650;-76
2022/03/04 09:17:03;;;;;;;31.87;18.60;;;5.90;77.30;;;;;;5023522;28;20810;-75
2022/03/04 09:19:30;;;;;;;31.90;19.37;;;6.00;77.60;;;;;;5040010;28;20504;-78
2022/03/04 09:21:56;;;;;;;29.83;19.10;;;6.00;76.90;;;;;;5040796;28;21076;-75
2022/03/04 09:24:22;;;;;;;31.33;19.83;;;5.90;77.30;;;;;;5040619;28;20438;-85
2022/03/04 09:26:48;;;;;;;29.10;18.17;;;6.00;77.20;;;;;;5024528;28;20467;-74
2022/03/04 09:29:13;;;;;;;34.57;20.40;;;6.00;76.90;;;;;;5038666;28;20421;-77
2022/03/04 09:31:39;;;;;;;30.50;19.30;;;6.10;77.20;;;;;;5037995;28;20195;-76
2022/03/04 09:34:04;;;;;;;32.20;20.83;;;6.10;77.20;;;;;;5039855;28;20950;-76
2022/03/04 09:36:31;;;;;;;32.30;20.80;;;6.00;77.20;;;;;;5040036;28;20277;-80
2022/03/04 09:38:57;;;;;;;32.53;20.60;;;6.00;77.40;;;;;;5040956;28;20203;-77
2022/03/04 09:41:25;;;;;;;26.87;19.40;;;6.10;77.20;;;;;;5025162;28;20517;-82
2022/03/04 09:43:53;;;;;;;27.03;20.27;;;6.20;77.10;;;;;;5024225;28;20445;-77
2022/03/04 09:46:21;;;;;;;29.77;20.30;;;6.40;76.40;;;;;;5028504;28;21007;-74
2022/03/04 09:48:50;;;;;;;31.63;20.10;;;6.40;75.90;;;;;;5045598;28;20493;-74
2022/03/04 09:51:16;;;;;;;33.63;19.57;;;6.40;75.30;;;;;;5044602;28;20433;-74
2022/03/04 09:53:43;;;;;;;38.27;22.00;;;6.40;75.60;;;;;;5040201;28;21017;-73
2022/03/04 09:56:09;;;;;;;33.00;20.40;;;6.50;75.90;;;;;;5041296;28;20438;-73
2022/03/04 09:58:37;;;;;;;30.43;20.80;;;6.60;75.80;;;;;;5043732;28;20449;-75
2022/03/04 10:01:11;;;;;;;30.20;20.57;;;6.60;75.10;;;;;;5026434;28;20290;-76
2022/03/04 10:03:44;;;;;;;31.10;19.93;;;6.70;74.60;;;;;;5045172;28;20473;-73
2022/03/04 10:06:09;;;;;;;32.00;22.10;;;6.70;74.60;;;;;;5040001;28;20456;-75
2022/03/04 10:08:52;;;;;;;29.67;19.97;;;6.80;74.10;;;;;;5042161;28;20898;-73
2022/03/04 10:11:32;;;;;;;30.90;20.10;;;6.90;74.10;;;;;;5044911;28;20187;-73
2022/03/04 10:14:00;;;;;;;34.53;21.33;;;7.00;73.50;;;;;;5041146;28;20462;-75
2022/03/04 10:16:29;;;;;;;36.80;19.80;;;7.10;72.80;;;;;;5042600;28;20488;-75
2022/03/04 10:19:14;;;;;;;30.97;20.37;;;7.20;72.40;;;;;;5044824;28;20445;-75
2022/03/04 10:22:00;;;;;;;31.33;20.43;;;7.20;72.30;;;;;;5043778;28;20450;-75
2022/03/04 10:24:39;;;;;;;31.10;19.87;;;7.30;72.30;;;;;;5042384;28;20430;-73
2022/03/04 10:27:10;;;;;;;32.80;20.23;;;7.30;71.30;;;;;;5041539;28;20468;-75
2022/03/04 10:29:44;;;;;;;33.10;19.77;;;7.40;71.20;;;;;;5042672;28;20546;-75
2022/03/04 10:32:14;;;;;;;35.73;18.07;;;7.40;71.30;;;;;;5043184;28;20426;-74
2022/03/04 10:35:05;;;;;;;33.17;21.37;;;7.50;70.20;;;;;;5041611;28;20434;-73
2022/03/04 10:37:48;;;;;;;32.37;20.77;;;7.60;70.70;;;;;;5040462;28;20437;-73
2022/03/04 10:40:24;;;;;;;28.83;19.63;;;7.50;70.80;;;;;;5041609;28;20548;-73
2022/03/04 10:43:02;;;;;;;34.30;21.23;;;7.60;71.20;;;;;;5040917;28;20821;-73
2022/03/04 10:45:31;;;;;;;31.97;22.53;;;7.70;70.90;;;;;;5040423;28;20932;-73
2022/03/04 10:47:57;;;;;;;31.70;19.57;;;7.80;70.40;;;;;;5041448;28;20466;-73
2022/03/04 10:50:26;;;;;;;35.53;21.73;;;7.80;70.10;;;;;;5041287;28;20594;-73
2022/03/04 10:52:58;;;;;;;33.90;20.97;;;7.80;70.70;;;;;;5042616;28;20494;-73
2022/03/04 10:55:35;;;;;;;32.00;20.40;;;7.90;70.90;;;;;;5039060;28;20500;-73
2022/03/04 10:58:04;;;;;;;30.47;20.97;;;7.90;70.50;;;;;;5041175;28;20800;-73
2022/03/04 11:00:35;;;;;;;30.33;20.63;;;7.90;69.90;;;;;;5040899;28;20568;-72
2022/03/04 11:03:02;;;;;;;30.70;21.00;;;8.00;68.80;;;;;;5043311;28;20456;-72
2022/03/04 11:05:28;;;;;;;31.10;21.70;;;8.00;68.80;;;;;;5041513;28;20445;-72
2022/03/04 11:07:55;;;;;;;30.83;21.67;;;8.00;69.60;;;;;;5043459;28;20461;-72
2022/03/04 11:10:21;;;;;;;29.90;21.23;;;8.10;68.70;;;;;;5039928;28;20214;-71
2022/03/04 11:12:53;;;;;;;35.00;21.70;;;8.10;68.40;;;;;;5044256;28;20436;-73
2022/03/04 11:15:19;;;;;;;28.07;20.10;;;8.10;69.30;;;;;;5045808;28;20535;-73
2022/03/04 11:17:46;;;;;;;28.87;19.03;;;8.20;68.60;;;;;;5039192;28;22211;-73
2022/03/04 11:20:13;;;;;;;35.97;21.40;;;8.20;68.40;;;;;;5041943;28;20554;-73
2022/03/04 11:22:41;;;;;;;31.50;19.43;;;8.30;67.40;;;;;;5039462;28;20548;-74
2022/03/04 11:25:12;;;;;;;29.40;20.33;;;8.40;67.10;;;;;;5039592;28;20450;-74
2022/03/04 11:27:43;;;;;;;29.07;20.70;;;8.50;66.40;;;;;;5041609;28;20508;-74
2022/03/04 11:30:38;;;;;;;28.13;18.80;;;8.50;67.30;;;;;;5043169;28;20541;-74
2022/03/04 11:33:05;;;;;;;48.83;31.10;;;8.60;66.70;;;;;;5021991;28;20499;-73
2022/03/04 11:36:02;;;;;;;29.83;20.37;;;8.70;67.50;;;;;;5040828;28;20437;-73
2022/03/04 11:38:46;;;;;;;31.00;21.40;;;8.80;66.50;;;;;;5035257;28;20483;-74
2022/03/04 11:41:19;;;;;;;27.20;19.67;;;8.90;66.00;;;;;;5039517;28;20457;-74
2022/03/04 11:43:45;;;;;;;36.20;19.63;;;9.00;66.10;;;;;;5042326;28;20434;-74
2022/03/04 11:46:21;;;;;;;28.50;20.33;;;9.10;64.40;;;;;;5042616;28;20484;-73
2022/03/04 11:48:48;;;;;;;28.03;19.73;;;9.20;64.70;;;;;;5038071;28;20465;-73
2022/03/04 11:51:20;;;;;;;29.03;19.00;;;9.30;63.70;;;;;;5023121;28;21006;-74
2022/03/04 11:54:27;;;;;;;30.07;18.60;;;9.30;63.00;;;;;;5038020;28;20435;-74
2022/03/04 11:56:53;;;;;;;30.97;19.97;;;9.40;63.40;;;;;;5035722;28;20429;-74
2022/03/04 11:59:21;;;;;;;31.00;20.50;;;9.60;63.80;;;;;;5037925;28;20458;-74
2022/03/04 12:01:47;;;;;;;31.93;21.13;;;9.60;62.10;;;;;;5040408;28;20564;-74
2022/03/04 12:04:15;;;;;;;34.00;21.93;;;9.70;62.50;;;;;;5035889;28;21157;-74
2022/03/04 12:06:41;;;;;;;29.40;20.10;;;9.80;62.20;;;;;;5039272;28;20987;-73
2022/03/04 12:09:33;;;;;;;28.97;20.00;;;10.10;60.10;;;;;;5038142;28;20450;-74
2022/03/04 12:12:08;;;;;;;27.70;19.50;;;10.50;59.50;;;;;;5034558;28;20475;-74
2022/03/04 12:14:34;;;;;;;30.40;20.40;;;11.00;58.70;;;;;;5036379;28;20436;-74
2022/03/04 12:17:00;;;;;;;33.37;22.53;;;11.90;57.90;;;;;;5038757;28;20862;-74
2022/03/04 12:19:35;;;;;;;25.50;19.50;;;12.70;57.10;;;;;;5043992;28;20302;-75
2022/03/04 12:22:02;;;;;;;28.60;20.00;;;13.60;55.00;;;;;;5039909;28;20223;-74
2022/03/04 12:24:32;;;;;;;31.67;21.97;;;14.20;54.00;;;;;;5037628;28;20504;-73
2022/03/04 12:26:58;;;;;;;29.00;20.73;;;14.90;52.60;;;;;;5038977;28;20557;-73
2022/03/04 12:29:50;;;;;;;24.67;20.20;;;15.60;51.30;;;;;;5040413;28;20438;-67
2022/03/04 12:32:16;;;;;;;23.83;20.20;;;16.30;49.50;;;;;;5039216;28;20482;-70
2022/03/04 12:34:51;;;;;;;23.10;18.70;;;16.60;48.60;;;;;;5038978;28;20915;-68
2022/03/04 12:37:17;;;;;;;27.20;19.77;;;17.00;47.40;;;;;;5022017;28;20653;-67